Belington, West Virginia
Current Conditions -  °F | °C
As of 8:08 AM on Thursday 27 Nov 2014 (Local Time) from KEKN Reporting Station
Overcast Overcast  
Wind Chill: 27°   Ceiling: 2000
Heat Index: 32°   Visibility: 8mi
Dew Point: 31°   Wind: 5mph
Humidity: 96%   Direction: 10°N
Pressure: 30.01"   Gusts: NA
Location:  39.03°N, 79.94°W
Report Text: KEKN 271308Z AUTO 01004KT 8SM SCT014 BKN020 OVC044 00/M01 A3001 RMK AO2 T00001006 TSNO
Loading
Personal Weather Stations






























Interactive Weather Map New forecast layout! Learn more

10-Day Weather Forecast

Advertisements
Track Severe Weather on mobile